Time;durP1;ratioP1;P1;durP2;ratioP2;P2;SDS_P1;SDS_P2;PMS_P1;PMS_P2;Temp;Humidity;BMP_temperature;BMP_pressure;BME280_temperature;BME280_humidity;BME280_pressure;Samples;Min_cycle;Max_cycle;Signal;HPM_P1;HPM_P2
2023/04/30 00:00:13;;;;;;;3.70;3.35;;;;;;;14.63;69.56;95760.56;4995699;28;20206;-86
2023/04/30 00:02:46;;;;;;;3.95;3.65;;;;;;;14.47;70.34;95755.75;4994477;28;20310;-85
2023/04/30 00:05:17;;;;;;;3.70;3.40;;;;;;;14.51;70.46;95755.16;4995544;28;20200;-86
2023/04/30 00:07:57;;;;;;;3.92;3.50;;;;;;;14.54;70.22;95755.75;4995419;28;20697;-86
2023/04/30 00:10:31;;;;;;;3.90;3.42;;;;;;;14.43;69.93;95762.34;4991603;28;20234;-87
2023/04/30 00:13:12;;;;;;;4.00;3.67;;;;;;;14.43;69.87;95764.94;4997523;28;20206;-86
2023/04/30 00:15:45;;;;;;;4.30;3.72;;;;;;;14.44;70.31;95761.31;4997336;28;20203;-86
2023/04/30 00:18:14;;;;;;;3.88;3.47;;;;;;;14.46;70.00;95762.72;4996535;28;20625;-86
2023/04/30 00:20:47;;;;;;;4.97;3.63;;;;;;;14.52;69.83;95768.91;4996447;28;20213;-86
2023/04/30 00:23:20;;;;;;;4.03;3.72;;;;;;;14.59;69.34;95763.75;4996060;28;20231;-85
2023/04/30 00:25:58;;;;;;;4.18;3.88;;;;;;;14.55;69.57;95768.53;4996687;28;20234;-86
2023/04/30 00:28:27;;;;;;;4.47;3.78;;;;;;;14.39;69.94;95771.44;4999020;28;20625;-86
2023/04/30 00:30:59;;;;;;;3.70;3.40;;;;;;;14.31;70.44;95781.97;4998934;28;20234;-87
2023/04/30 00:33:36;;;;;;;4.28;3.88;;;;;;;14.21;71.91;95784.16;4996992;28;20231;-86
2023/04/30 00:36:15;;;;;;;3.90;3.60;;;;;;;14.15;71.54;95775.34;4997147;28;20559;-86
2023/04/30 00:38:52;;;;;;;4.35;3.95;;;;;;;14.18;71.78;95787.91;4997457;28;20210;-87
2023/04/30 00:41:21;;;;;;;4.30;3.90;;;;;;;14.23;71.08;95782.16;5003819;28;20623;-86
2023/04/30 00:44:01;;;;;;;4.68;4.28;;;;;;;14.06;71.47;95777.31;4996283;28;20772;-86
2023/04/30 00:46:30;;;;;;;4.20;3.80;;;;;;;14.16;71.41;95777.75;4995566;28;20275;-87
2023/04/30 00:48:56;;;;;;;4.50;4.10;;;;;;;13.98;72.12;95787.84;4996266;28;20203;-88
2023/04/30 00:51:33;;;;;;;4.05;3.75;;;;;;;14.00;72.76;95787.66;4995457;28;20209;-87
2023/04/30 00:54:31;;;;;;;4.65;4.25;;;;;;;13.92;72.58;95783.41;4995703;28;20230;-86
2023/04/30 00:57:05;;;;;;;4.32;3.92;;;;;;;14.03;72.34;95780.31;4995617;28;20264;-86
2023/04/30 00:59:46;;;;;;;3.95;3.65;;;;;;;14.10;71.74;95782.91;4995214;28;20223;-87
2023/04/30 01:02:21;;;;;;;4.22;3.83;;;;;;;14.25;71.58;95790.50;4975633;28;20207;-86
2023/04/30 01:04:56;;;;;;;4.13;3.83;;;;;;;14.21;71.62;95797.91;4981051;28;20219;-86
2023/04/30 01:07:43;;;;;;;6.30;4.15;;;;;;;14.19;71.64;95799.88;4995890;28;20684;-87
2023/04/30 01:10:47;;;;;;;3.72;3.42;;;;;;;14.07;72.30;95796.22;4995375;28;20612;-86
2023/04/30 01:13:30;;;;;;;4.45;4.05;;;;;;;14.16;71.70;95792.50;4995329;28;20230;-86
2023/04/30 01:16:28;;;;;;;3.80;3.50;;;;;;;14.26;71.73;95799.88;4995600;28;20196;-86
2023/04/30 01:25:27;;;;;;;4.28;3.88;;;;;;;14.25;71.25;95796.50;4990457;28;20735;-86
2023/04/30 01:28:19;;;;;;;4.50;4.10;;;;;;;14.31;70.94;95797.53;4994664;28;20207;-85
2023/04/30 01:30:53;;;;;;;5.05;4.18;;;;;;;14.24;71.31;95804.47;4995206;28;20231;-86
2023/04/30 01:33:28;;;;;;;4.90;4.05;;;;;;;14.09;71.47;95804.59;4994669;28;20662;-86
2023/04/30 01:36:17;;;;;;;4.57;4.18;;;;;;;14.11;71.61;95795.66;4994654;28;20583;-86
2023/04/30 01:39:30;;;;;;;4.10;3.80;;;;;;;14.20;71.83;95801.47;4990880;28;20207;-87
2023/04/30 01:42:15;;;;;;;4.47;4.07;;;;;;;14.16;71.43;95806.25;4995152;28;20269;-86
2023/04/30 01:45:21;;;;;;;4.43;4.05;;;;;;;14.18;71.20;95799.06;4995103;28;20227;-86
2023/04/30 01:47:59;;;;;;;4.53;4.13;;;;;;;14.18;71.34;95806.06;4964305;28;20271;-86
2023/04/30 01:50:42;;;;;;;4.43;4.03;;;;;;;14.20;71.21;95805.84;4994720;28;20281;-87
2023/04/30 01:53:30;;;;;;;4.50;4.10;;;;;;;14.25;71.12;95808.63;4994226;28;20715;-86
2023/04/30 01:56:10;;;;;;;4.57;4.18;;;;;;;14.19;71.35;95807.66;4994651;28;20214;-86
2023/04/30 01:58:41;;;;;;;4.95;4.55;;;;;;;14.04;71.51;95805.19;4994630;28;20251;-86
2023/04/30 02:01:34;;;;;;;4.57;4.18;;;;;;;13.96;72.10;95809.72;4993358;28;20207;-86
2023/04/30 02:04:03;;;;;;;4.70;4.30;;;;;;;13.95;72.32;95798.56;4993439;28;20227;-86
2023/04/30 02:06:30;;;;;;;4.55;4.15;;;;;;;14.03;72.20;95808.78;4994746;28;20721;-87
2023/04/30 02:09:05;;;;;;;4.43;4.03;;;;;;;14.02;72.47;95808.97;4994156;28;20207;-87
2023/04/30 02:11:38;;;;;;;5.18;4.68;;;;;;;13.96;72.61;95812.31;4995099;28;20237;-86
2023/04/30 02:14:27;;;;;;;4.53;4.07;;;;;;;13.98;72.51;95805.16;4995551;28;20585;-86
2023/04/30 02:17:13;;;;;;;;;;;;;;;;;;;;;
2023/04/30 02:20:02;;;;;;;4.78;4.38;;;;;;;14.06;72.29;95802.38;4994535;28;20200;-86
2023/04/30 02:22:40;;;;;;;4.47;4.07;;;;;;;14.15;71.65;95806.44;4995501;28;20576;-86
2023/04/30 02:28:10;;;;;;;4.95;4.43;;;;;;;14.08;71.43;95805.59;4993540;28;20211;-86
2023/04/30 02:30:42;;;;;;;5.38;4.88;;;;;;;14.06;71.77;95815.34;4994990;28;20226;-86
2023/04/30 02:33:19;;;;;;;5.53;4.80;;;;;;;13.92;71.96;95803.31;4995509;28;20287;-86
2023/04/30 02:36:02;;;;;;;4.90;4.50;;;;;;;13.97;71.53;95812.13;4995071;28;20250;-86
2023/04/30 02:38:28;;;;;;;5.40;4.90;;;;;;;13.99;71.99;95822.28;4995582;28;20207;-86
2023/04/30 02:40:59;;;;;;;4.95;4.55;;;;;;;14.02;71.82;95822.72;4995329;28;20195;-86
2023/04/30 02:43:34;;;;;;;5.05;4.55;;;;;;;14.02;72.02;95824.50;4994777;28;20322;-86
2023/04/30 02:46:08;;;;;;;5.50;5.00;;;;;;;13.90;72.51;95826.81;4997642;28;20819;-87
2023/04/30 02:48:38;;;;;;;5.28;4.80;;;;;;;13.82;72.71;95827.78;4999908;28;20723;-87
2023/04/30 02:51:25;;;;;;;5.03;4.53;;;;;;;13.94;72.44;95824.66;4995407;28;20476;-85
2023/04/30 02:53:57;;;;;;;6.10;4.53;;;;;;;13.96;72.92;95833.03;4995755;28;20226;-87
2023/04/30 02:56:31;;;;;;;4.85;4.40;;;;;;;13.85;72.68;95826.59;4995791;28;20210;-87
2023/04/30 03:01:54;;;;;;;5.18;4.75;;;;;;;13.75;73.14;95828.72;4985584;28;20207;-86
2023/04/30 03:04:26;;;;;;;6.30;5.53;;;;;;;13.66;73.35;95820.28;5001764;28;20295;-86
2023/04/30 03:07:12;;;;;;;;;;;;;;;;;;;;;
2023/04/30 03:09:39;;;;;;;5.10;4.60;;;;;;;13.70;74.01;95818.94;4991843;28;20264;-87
2023/04/30 03:12:13;;;;;;;5.32;4.90;;;;;;;13.75;73.31;95816.56;4982814;28;20275;-88
2023/04/30 03:14:47;;;;;;;5.20;4.70;;;;;;;13.77;73.49;95822.38;4984577;28;20251;-86
2023/04/30 03:17:16;;;;;;;5.80;5.30;;;;;;;13.66;73.89;95816.94;4985440;28;20708;-88
2023/04/30 03:19:50;;;;;;;5.67;4.80;;;;;;;13.51;73.98;95826.56;4980937;28;20212;-86
2023/04/30 03:22:22;;;;;;;6.23;5.63;;;;;;;13.38;74.52;95816.94;4978856;28;20208;-86
2023/04/30 03:24:50;;;;;;;5.00;4.60;;;;;;;13.45;74.21;95817.78;4979051;28;20323;-86
2023/04/30 03:27:22;;;;;;;5.73;5.00;;;;;;;13.56;73.90;95817.25;4978768;28;20204;-86
2023/04/30 03:29:48;;;;;;;5.83;5.33;;;;;;;13.56;73.32;95806.91;4996878;28;20211;-86
2023/04/30 03:32:24;;;;;;;6.27;5.67;;;;;;;13.67;72.78;95803.78;4997498;28;20207;-86
2023/04/30 03:34:51;;;;;;;5.73;5.23;;;;;;;13.70;72.03;95816.34;4998008;28;20221;-86
2023/04/30 03:37:18;;;;;;;6.80;5.53;;;;;;;13.65;71.97;95805.78;4998056;28;20227;-86
2023/04/30 03:39:45;;;;;;;5.63;5.13;;;;;;;13.62;71.92;95805.34;4998081;28;20211;-86
2023/04/30 03:42:11;;;;;;;6.22;5.70;;;;;;;13.55;71.88;95805.31;4998888;28;20195;-85
2023/04/30 03:44:38;;;;;;;6.27;5.67;;;;;;;13.46;71.98;95806.47;4998099;28;20227;-87
2023/04/30 03:47:04;;;;;;;6.53;5.93;;;;;;;13.56;71.66;95811.28;4997991;28;20211;-86
2023/04/30 03:49:31;;;;;;;5.67;5.17;;;;;;;13.58;71.79;95806.72;4997505;28;20214;-88
2023/04/30 03:51:59;;;;;;;6.00;5.50;;;;;;;13.65;71.29;95792.84;4998103;28;20210;-85
2023/04/30 03:54:26;;;;;;;6.47;5.83;;;;;;;13.69;71.05;95794.03;4996819;28;20254;-86
2023/04/30 03:56:52;;;;;;;6.07;5.57;;;;;;;13.72;70.76;95793.66;4997194;28;20407;-86
2023/04/30 03:59:19;;;;;;;6.40;5.83;;;;;;;13.68;70.60;95789.84;4997581;28;20916;-87
2023/04/30 04:01:45;;;;;;;5.93;5.43;;;;;;;13.61;70.85;95791.63;4997183;28;20692;-86
2023/04/30 04:04:12;;;;;;;5.70;5.20;;;;;;;13.67;71.12;95788.25;4997217;28;20230;-87
2023/04/30 04:06:38;;;;;;;6.03;5.53;;;;;;;13.67;71.06;95793.44;4977655;28;20200;-86
2023/04/30 04:09:06;;;;;;;6.37;5.77;;;;;;;13.65;70.88;95792.84;4976883;28;20208;-85
2023/04/30 04:11:33;;;;;;;6.17;5.60;;;;;;;13.46;71.21;95798.69;4976664;28;20673;-86
2023/04/30 04:13:59;;;;;;;6.23;5.63;;;;;;;13.44;71.13;95796.28;4977637;28;20379;-86
2023/04/30 04:16:26;;;;;;;6.57;5.97;;;;;;;13.43;71.79;95804.25;4983581;28;20200;-88
2023/04/30 04:18:52;;;;;;;7.30;5.87;;;;;;;13.48;71.47;95805.25;4981442;28;20436;-86
2023/04/30 04:21:20;;;;;;;6.07;5.57;;;;;;;13.54;71.09;95806.28;4978095;28;20581;-87
2023/04/30 04:23:46;;;;;;;6.20;5.60;;;;;;;13.60;71.03;95815.91;4978236;28;20224;-87
2023/04/30 04:26:18;;;;;;;6.23;5.60;;;;;;;13.54;71.08;95810.66;4997726;28;20208;-86
2023/04/30 04:28:47;;;;;;;6.40;5.80;;;;;;;13.47;71.50;95816.59;4996879;28;20243;-86
2023/04/30 04:31:14;;;;;;;6.05;5.45;;;;;;;13.56;71.30;95819.84;4997792;28;20708;-86
2023/04/30 04:33:41;;;;;;;6.33;5.30;;;;;;;13.65;71.04;95825.69;4997099;28;20262;-86
2023/04/30 04:36:07;;;;;;;5.57;5.07;;;;;;;13.69;70.88;95822.50;4998005;28;20203;-86
2023/04/30 04:38:36;;;;;;;6.38;5.78;;;;;;;13.76;70.17;95827.72;4997520;28;20214;-86
2023/04/30 04:41:03;;;;;;;6.60;5.90;;;;;;;13.85;70.06;95825.81;4997059;28;20621;-85
2023/04/30 04:43:31;;;;;;;6.20;5.60;;;;;;;13.80;70.08;95834.13;4997745;28;20246;-86
2023/04/30 04:45:57;;;;;;;6.45;5.95;;;;;;;13.79;69.91;95830.75;4997618;28;20720;-86
2023/04/30 04:48:23;;;;;;;7.10;6.50;;;;;;;13.64;69.91;95835.22;4997918;28;20210;-86
2023/04/30 04:50:50;;;;;;;6.30;5.80;;;;;;;13.62;70.49;95829.44;4998583;28;20212;-87
2023/04/30 04:53:18;;;;;;;6.57;6.00;;;;;;;13.57;70.49;95839.56;4997236;28;20330;-86
2023/04/30 04:55:45;;;;;;;5.90;5.40;;;;;;;13.57;70.36;95829.19;4998596;28;20200;-86
2023/04/30 04:58:11;;;;;;;6.63;6.03;;;;;;;13.63;70.13;95833.63;4998399;28;20213;-86
2023/04/30 05:00:40;;;;;;;6.67;6.07;;;;;;;13.54;69.74;95833.94;4997453;28;20203;-87
2023/04/30 05:03:09;;;;;;;6.50;5.90;;;;;;;13.54;70.06;95841.72;4997223;28;20231;-86
2023/04/30 05:05:35;;;;;;;7.53;6.80;;;;;;;13.63;69.74;95836.22;4998397;28;20227;-85
2023/04/30 05:08:02;;;;;;;6.43;5.82;;;;;;;13.64;69.97;95837.03;4997575;28;20270;-87
2023/04/30 05:10:30;;;;;;;8.50;7.25;;;;;;;13.67;69.59;95841.78;4985172;28;20211;-86
2023/04/30 05:12:59;;;;;;;7.10;6.40;;;;;;;13.61;69.56;95838.19;4978582;28;20208;-86
2023/04/30 05:15:25;;;;;;;8.87;6.13;;;;;;;13.55;68.98;95838.13;4980135;28;20211;-88
2023/04/30 05:17:53;;;;;;;7.37;6.67;;;;;;;13.42;69.84;95839.66;4983734;28;20212;-87
2023/04/30 05:20:19;;;;;;;7.07;6.47;;;;;;;13.49;70.14;95839.69;4991414;28;20625;-86
2023/04/30 05:22:47;;;;;;;7.33;6.63;;;;;;;13.46;70.08;95847.84;4996857;28;20195;-88
2023/04/30 05:25:15;;;;;;;7.37;6.67;;;;;;;13.34;70.06;95846.72;4996538;28;20227;-87
2023/04/30 05:27:44;;;;;;;6.63;6.03;;;;;;;13.09;70.79;95854.84;4996855;28;20200;-86
2023/04/30 05:30:11;;;;;;;6.93;6.33;;;;;;;12.98;71.48;95864.88;4996416;28;20647;-86
2023/04/30 05:32:37;;;;;;;6.80;6.20;;;;;;;12.87;71.71;95862.78;4996918;28;20616;-87
2023/04/30 05:35:08;;;;;;;8.20;6.80;;;;;;;13.03;72.01;95852.22;4996497;28;20230;-87
2023/04/30 05:37:35;;;;;;;6.83;6.20;;;;;;;13.06;71.89;95860.41;4996781;28;20199;-89
2023/04/30 05:40:05;;;;;;;6.97;6.37;;;;;;;13.07;71.32;95863.78;4998705;28;20203;-88
2023/04/30 05:42:31;;;;;;;7.07;6.37;;;;;;;13.15;71.13;95855.94;4997225;28;20203;-87
2023/04/30 05:44:58;;;;;;;7.50;6.70;;;;;;;13.17;71.45;95856.53;4995654;28;20230;-88
2023/04/30 05:47:24;;;;;;;8.00;7.27;;;;;;;13.20;70.97;95860.53;4996266;28;20204;-87
2023/04/30 05:50:05;;;;;;;7.03;6.37;;;;;;;13.29;71.08;95852.47;4997591;28;20206;-89
2023/04/30 05:52:38;;;;;;;7.47;6.77;;;;;;;13.39;70.34;95849.56;4996717;28;20577;-87
2023/04/30 05:55:16;;;;;;;10.17;7.47;;;;;;;13.36;69.87;95853.31;4995956;28;20315;-87
2023/04/30 05:57:51;;;;;;;8.63;7.73;;;;;;;13.44;69.76;95853.19;4996416;28;20266;-86
2023/04/30 06:00:20;;;;;;;6.30;5.70;;;;;;;13.31;70.21;95854.84;4996631;28;20203;-86
2023/04/30 06:02:46;;;;;;;6.40;5.90;;;;;;;13.41;70.07;95852.75;4994679;28;20200;-88
2023/04/30 06:05:13;;;;;;;6.80;6.20;;;;;;;13.39;69.52;95855.53;4995810;28;20234;-86
2023/04/30 06:07:40;;;;;;;7.37;5.93;;;;;;;13.36;69.77;95855.91;4995534;28;20234;-87
2023/04/30 06:10:11;;;;;;;6.70;6.10;;;;;;;13.36;70.18;95852.53;4985778;28;20262;-88
2023/04/30 06:12:39;;;;;;;6.23;5.63;;;;;;;13.48;69.69;95849.22;4977028;28;20208;-86
2023/04/30 06:15:06;;;;;;;6.27;5.77;;;;;;;13.53;69.34;95846.09;4977510;28;20359;-86
2023/04/30 06:17:33;;;;;;;6.50;5.90;;;;;;;13.66;68.89;95853.94;4975950;28;20215;-86
2023/04/30 06:20:03;;;;;;;6.77;6.17;;;;;;;13.70;68.80;95846.59;4988020;28;20211;-85
2023/04/30 06:22:31;;;;;;;5.87;5.37;;;;;;;13.68;68.35;95849.38;4995919;28;20297;-87
2023/04/30 06:25:00;;;;;;;6.20;5.70;;;;;;;13.70;68.46;95841.41;4995702;28;20227;-86
2023/04/30 06:27:32;;;;;;;6.47;5.97;;;;;;;13.73;68.94;95843.63;4995450;28;20306;-86
2023/04/30 06:30:05;;;;;;;6.30;5.77;;;;;;;13.79;68.69;95838.50;4995958;28;20211;-86
2023/04/30 06:32:37;;;;;;;6.43;5.82;;;;;;;13.80;67.78;95837.53;4995713;28;20273;-87
2023/04/30 06:35:14;;;;;;;6.20;5.70;;;;;;;13.70;68.33;95849.19;4995791;28;20712;-87
2023/04/30 06:40:32;;;;;;;6.10;5.60;;;;;;;13.76;67.47;95841.47;4994688;28;20413;-86
2023/04/30 06:43:17;;;;;;;6.35;5.75;;;;;;;13.71;67.78;95838.66;4995878;28;20207;-86
2023/04/30 06:45:57;;;;;;;6.22;5.63;;;;;;;13.80;68.31;95834.94;4988186;28;20743;-88
2023/04/30 06:48:36;;;;;;;;;;;;;;;;;;;;;
2023/04/30 06:51:36;;;;;;;5.68;5.07;;;;;;;14.32;65.17;95846.53;4999898;28;20795;-86
2023/04/30 06:54:42;;;;;;;5.72;5.22;;;;;;;14.44;65.32;95844.22;4939602;29;20225;-87
2023/04/30 07:00:18;;;;;;;5.68;5.03;;;;;;;14.35;65.68;95843.56;4995457;28;20346;-86
2023/04/30 07:02:51;;;;;;;6.00;5.50;;;;;;;14.45;65.55;95843.22;4998966;28;20203;-86
2023/04/30 07:27:14;;;;;;;;;;;;;;;;;;;;;
2023/04/30 07:30:17;;;;;;;13.65;10.00;;;;;;;15.25;64.11;95826.84;4998060;28;20264;-87
2023/04/30 07:33:08;;;;;;;10.50;7.65;;;;;;;15.47;62.25;95833.41;4953729;28;20585;-87
2023/04/30 07:35:46;;;;;;;8.05;6.22;;;;;;;15.56;62.39;95834.06;4968011;28;20238;-86
2023/04/30 07:38:17;;;;;;;6.55;5.65;;;;;;;15.62;60.90;95835.03;4999250;28;20225;-89
2023/04/30 07:40:45;;;;;;;6.30;5.70;;;;;;;15.30;61.71;95834.81;4989608;28;20207;-86
2023/04/30 07:43:19;;;;;;;8.38;7.63;;;;;;;15.16;62.19;95841.81;4998369;28;20428;-86
2023/04/30 07:45:56;;;;;;;11.40;10.40;;;;;;;15.18;62.52;95831.25;5000199;28;20250;-88
2023/04/30 07:55:20;;;;;;;5.45;4.97;;;;;;;16.11;60.63;95824.97;4999147;28;20212;-86
2023/04/30 07:57:53;;;;;;;6.38;5.88;;;;;;;16.22;59.64;95824.31;4996545;28;20207;-88
2023/04/30 08:00:30;;;;;;;6.38;5.88;;;;;;;16.04;59.78;95826.75;4990151;28;20259;-87
2023/04/30 08:03:33;;;;;;;7.53;6.88;;;;;;;15.98;59.08;95824.19;4991757;28;20207;-86
2023/04/30 08:10:14;;;;;;;5.55;5.07;;;;;;;16.01;59.08;95831.56;4966284;28;20203;-86
2023/04/30 08:18:37;;;;;;;5.18;4.75;;;;;;;16.11;59.96;95831.94;4997474;28;20199;-88
2023/04/30 08:21:17;;;;;;;5.30;4.90;;;;;;;16.20;60.18;95828.09;4997222;28;20215;-87
2023/04/30 08:23:46;;;;;;;5.75;5.30;;;;;;;16.10;60.61;95827.75;4999335;28;20219;-87
2023/04/30 08:29:15;;;;;;;6.93;6.38;;;;;;;15.59;62.03;95825.06;4997868;28;20263;-87
2023/04/30 08:31:46;;;;;;;6.68;6.18;;;;;;;15.68;62.22;95827.25;5000726;28;20262;-89
2023/04/30 08:37:28;;;;;;;6.32;5.82;;;;;;;16.10;60.35;95828.56;4938889;29;20265;-87
2023/04/30 08:46:27;;;;;;;6.22;5.63;;;;;;;15.52;60.80;95818.06;4998849;28;20664;-88
2023/04/30 08:48:56;;;;;;;7.20;6.63;;;;;;;15.39;61.57;95830.25;4999661;28;20211;-88
2023/04/30 08:51:55;;;;;;;6.50;5.93;;;;;;;15.35;62.35;95824.66;5000704;28;20211;-88
2023/04/30 08:54:30;;;;;;;6.28;5.72;;;;;;;15.49;62.52;95828.84;4987070;28;20230;-87
2023/04/30 09:03:33;;;;;;;4.97;4.57;;;;;;;16.17;58.37;95831.13;4991149;28;20238;-87
2023/04/30 09:06:08;;;;;;;5.38;4.97;;;;;;;16.05;59.46;95835.34;4998812;28;20636;-87
2023/04/30 09:08:59;;;;;;;5.25;4.80;;;;;;;15.97;58.98;95827.81;4998608;28;20199;-86
2023/04/30 09:11:34;;;;;;;4.38;4.07;;;;;;;16.12;59.62;95831.75;4978465;28;20247;-87
2023/04/30 09:14:08;;;;;;;4.30;3.90;;;;;;;16.09;58.78;95837.34;4978754;28;20254;-88
2023/04/30 09:17:04;;;;;;;4.75;4.35;;;;;;;16.01;57.62;95834.97;4977767;28;20757;-87
2023/04/30 09:22:46;;;;;;;4.22;3.92;;;;;;;15.69;59.06;95836.63;4978044;28;20204;-88
2023/04/30 09:25:44;;;;;;;5.32;4.28;;;;;;;15.76;58.68;95829.63;4982503;28;20322;-88
2023/04/30 09:28:28;;;;;;;4.10;3.80;;;;;;;15.70;59.24;95838.22;4982729;28;20204;-86
2023/04/30 09:31:05;;;;;;;4.22;3.83;;;;;;;15.65;58.43;95830.25;4979909;28;20207;-87
2023/04/30 09:34:02;;;;;;;3.90;3.60;;;;;;;15.89;58.40;95828.81;4996658;28;20231;-87
2023/04/30 09:37:27;;;;;;;4.22;3.90;;;;;;;16.03;57.98;95830.38;4995978;28;20733;-89
2023/04/30 09:40:57;;;;;;;;;;;;;;;;;;;;;
2023/04/30 09:43:32;;;;;;;3.63;3.35;;;;;;;15.97;58.61;95838.97;4959810;28;20287;-88
2023/04/30 09:46:03;;;;;;;3.90;3.60;;;;;;;15.98;57.17;95837.16;4977548;28;20721;-86
2023/04/30 09:48:55;;;;;;;3.47;3.20;;;;;;;15.99;57.03;95833.56;4977193;28;20204;-86
2023/04/30 09:51:51;;;;;;;3.80;3.50;;;;;;;15.85;56.21;95832.81;4977937;28;20219;-89
2023/04/30 09:57:31;;;;;;;;;;;;;;;;;;;;;
2023/04/30 10:00:00;;;;;;;4.47;3.85;;;;;;;16.05;56.46;95823.16;4977273;28;20287;-87
2023/04/30 10:02:56;;;;;;;5.05;4.10;;;;;;;15.74;57.81;95828.25;4995632;28;20204;-88
2023/04/30 10:05:43;;;;;;;;;;;;;;;;;;;;;
2023/04/30 10:08:23;;;;;;;4.38;4.07;;;;;;;15.68;57.97;95824.66;4995986;28;20199;-88
2023/04/30 10:11:03;;;;;;;4.85;4.18;;;;;;;15.74;58.17;95830.84;4980488;28;20196;-87
2023/04/30 10:13:42;;;;;;;5.30;4.80;;;;;;;15.57;58.50;95825.28;4976317;28;20584;-87
2023/04/30 10:16:30;;;;;;;4.90;4.50;;;;;;;15.80;58.77;95828.22;4977475;28;20210;-88
2023/04/30 10:22:18;;;;;;;4.60;4.20;;;;;;;15.89;58.96;95827.00;4949933;29;20344;-87
2023/04/30 10:24:45;;;;;;;4.55;4.15;;;;;;;16.11;58.71;95818.97;4954594;28;20224;-88
2023/04/30 10:27:12;;;;;;;4.35;4.00;;;;;;;16.04;58.47;95812.97;4953890;29;20229;-87
2023/04/30 10:29:43;;;;;;;4.30;4.00;;;;;;;16.14;58.10;95808.16;4953823;28;20239;-87
2023/04/30 10:32:20;;;;;;;4.40;3.97;;;;;;;16.29;57.38;95810.50;4993369;28;20199;-88
2023/04/30 10:35:17;;;;;;;4.55;4.25;;;;;;;16.08;57.18;95803.78;4994771;28;20254;-87
2023/04/30 10:40:35;;;;;;;4.47;4.10;;;;;;;16.15;56.64;95804.56;4953850;29;20285;-87
2023/04/30 10:43:34;;;;;;;4.05;3.75;;;;;;;16.18;55.62;95809.34;4954095;28;20213;-86
2023/04/30 10:46:06;;;;;;;4.18;3.78;;;;;;;16.17;56.41;95802.53;4950665;29;20225;-88
2023/04/30 10:49:10;;;;;;;4.00;3.70;;;;;;;16.29;55.30;95800.91;4952751;28;20288;-86
2023/04/30 10:51:50;;;;;;;3.70;3.40;;;;;;;16.67;54.84;95787.94;4994929;28;20215;-86
2023/04/30 10:54:27;;;;;;;3.90;3.60;;;;;;;16.96;54.24;95785.75;4995543;28;20261;-86
2023/04/30 11:00:48;;;;;;;3.50;3.20;;;;;;;16.82;53.45;95780.66;4975773;28;20199;-87
2023/04/30 11:12:16;;;;;;;3.65;3.28;;;;;;;17.70;51.74;95775.34;4968566;28;20212;-86
2023/04/30 11:15:07;;;;;;;3.25;2.95;;;;;;;17.47;50.25;95772.53;4973013;28;20234;-86
2023/04/30 11:18:00;;;;;;;3.28;3.08;;;;;;;17.37;51.51;95770.41;4973861;28;20231;-87
2023/04/30 11:20:51;;;;;;;3.70;3.40;;;;;;;17.91;51.67;95767.09;4977947;28;20227;-86
2023/04/30 11:23:39;;;;;;;3.22;3.03;;;;;;;18.09;49.53;95763.66;4991920;28;20227;-86
2023/04/30 11:26:43;;;;;;;2.95;2.75;;;;;;;18.24;50.11;95769.31;4992405;28;20809;-86
2023/04/30 11:29:13;;;;;;;3.10;2.90;;;;;;;18.50;47.89;95764.75;4987607;28;20250;-86
2023/04/30 11:31:50;;;;;;;;;;;;;;;;;;;;;
2023/04/30 11:34:17;;;;;;;3.65;2.65;;;;;;;18.76;47.50;95758.44;4994303;28;20227;-87
2023/04/30 11:36:48;;;;;;;2.60;2.40;;;;;;;18.87;46.30;95755.84;4995710;28;20204;-88
2023/04/30 11:42:09;;;;;;;2.88;2.67;;;;;;;18.21;46.15;95755.94;4996012;28;20207;-86
2023/04/30 11:44:37;;;;;;;3.22;3.00;;;;;;;17.97;47.83;95756.81;4996539;28;20310;-88
2023/04/30 11:47:24;;;;;;;2.80;2.60;;;;;;;17.96;46.18;95758.63;5001035;28;20223;-86
2023/04/30 11:49:59;;;;;;;2.80;2.50;;;;;;;17.86;46.73;95755.75;4999892;28;20196;-87
2023/04/30 11:52:44;;;;;;;2.70;2.50;;;;;;;17.67;47.40;95759.34;5001788;28;20221;-87
2023/04/30 11:55:54;;;;;;;;;;;;;;;;;;;;;
2023/04/30 11:58:33;;;;;;;2.60;2.40;;;;;;;17.39;49.01;95757.97;5000453;28;20271;-86
2023/04/30 12:01:08;;;;;;;3.10;2.90;;;;;;;17.38;48.53;95755.59;4999286;28;20230;-86
2023/04/30 12:03:43;;;;;;;3.20;2.80;;;;;;;17.42;49.05;95749.75;4997759;28;20226;-86
2023/04/30 12:06:22;;;;;;;2.80;2.60;;;;;;;17.38;49.31;95739.97;4998908;28;20253;-87
2023/04/30 12:09:18;;;;;;;2.80;2.50;;;;;;;17.47;49.93;95741.31;4997961;28;20206;-86
2023/04/30 12:14:45;;;;;;;2.60;2.35;;;;;;;17.40;49.64;95743.97;4979159;28;20220;-86
2023/04/30 12:17:41;;;;;;;2.97;2.38;;;;;;;17.54;50.41;95750.63;4979532;28;20422;-86
2023/04/30 12:20:32;;;;;;;3.38;3.10;;;;;;;17.46;49.88;95750.13;4982800;28;20242;-86
2023/04/30 12:22:59;;;;;;;2.97;2.75;;;;;;;17.50;50.37;95744.28;4957328;28;20211;-86
2023/04/30 12:26:18;;;;;;;3.33;3.03;;;;;;;17.41;49.75;95748.16;4975840;28;20234;-86
2023/04/30 12:28:48;;;;;;;2.95;2.47;;;;;;;17.60;50.67;95743.75;4961819;28;20208;-86
2023/04/30 12:31:19;;;;;;;2.75;2.55;;;;;;;17.70;51.26;95746.72;4975941;28;20674;-86
2023/04/30 12:34:03;;;;;;;;;;;;;;;;;;;;;
2023/04/30 12:44:09;;;;;;;3.10;2.80;;;;;;;17.78;50.67;95743.00;4904267;28;20228;-86
2023/04/30 12:46:59;;;;;;;3.88;2.83;;;;;;;17.91;49.96;95722.81;4893813;29;20235;-86
2023/04/30 12:52:54;;;;;;;3.15;2.47;;;;;;;18.34;49.58;95718.47;4959493;28;20208;-87
2023/04/30 12:55:58;;;;;;;4.18;3.78;;;;;;;18.49;48.31;95721.44;4995687;28;20199;-86
2023/04/30 12:58:46;;;;;;;4.53;3.63;;;;;;;18.64;47.91;95714.06;4995420;28;20701;-86
2023/04/30 13:08:18;;;;;;;4.03;3.08;;;;;;;18.53;47.43;95709.56;4991296;28;20235;-86
2023/04/30 13:11:24;;;;;;;3.40;3.10;;;;;;;18.36;47.53;95703.41;4991582;28;20206;-87
2023/04/30 13:17:28;;;;;;;3.30;3.00;;;;;;;18.89;47.02;95700.81;4971616;28;20687;-87
2023/04/30 13:19:59;;;;;;;3.05;2.85;;;;;;;19.22;45.60;95689.84;4992912;28;20207;-86
2023/04/30 13:22:30;;;;;;;2.72;2.53;;;;;;;19.24;45.13;95690.41;4974809;28;20204;-86
2023/04/30 13:28:15;;;;;;;3.08;2.88;;;;;;;19.14;45.63;95682.34;4973550;28;20428;-87
2023/04/30 13:31:36;;;;;;;3.25;2.70;;;;;;;18.84;46.07;95680.66;4973933;28;20565;-86
2023/04/30 13:34:54;;;;;;;3.22;3.03;;;;;;;18.77;46.61;95682.56;4962682;28;20223;-87
2023/04/30 13:37:37;;;;;;;3.20;2.90;;;;;;;18.96;46.63;95676.22;4914641;29;20205;-86
2023/04/30 13:40:29;;;;;;;;;;;;;;;;;;;;;
2023/04/30 13:46:12;;;;;;;2.55;2.35;;;;;;;19.23;44.78;95666.13;4991682;28;20271;-86
2023/04/30 13:52:29;;;;;;;2.88;2.33;;;;;;;19.60;43.00;95661.44;4985071;28;20267;-86
2023/04/30 14:01:08;;;;;;;2.20;2.10;;;;;;;19.71;43.01;95659.03;4978571;28;20502;-86
2023/04/30 14:03:45;;;;;;;;;;;;;;;;;;;;;
2023/04/30 14:06:26;;;;;;;2.08;1.95;;;;;;;19.33;43.58;95657.69;4990929;28;20258;-87
2023/04/30 14:09:14;;;;;;;2.60;1.95;;;;;;;19.16;42.68;95638.53;4993555;28;20537;-86
2023/04/30 14:12:22;;;;;;;2.13;2.03;;;;;;;18.83;43.48;95647.75;4974018;28;20207;-87
2023/04/30 14:15:17;;;;;;;2.50;2.30;;;;;;;18.52;43.58;95643.56;4986672;28;20591;-86
2023/04/30 14:18:39;;;;;;;;;;;;;;;;;;;;;
2023/04/30 14:24:21;;;;;;;2.83;2.30;;;;;;;18.92;44.01;95638.53;4992800;28;20270;-86
2023/04/30 14:30:50;;;;;;;15.35;13.75;;;;;;;18.85;43.84;95645.72;4983781;28;20214;-87
2023/04/30 14:33:19;;;;;;;3.45;3.15;;;;;;;18.62;43.80;95633.44;5000084;28;20297;-87
2023/04/30 14:41:42;;;;;;;2.42;2.22;;;;;;;18.73;44.49;95620.63;4991605;28;20231;-88
2023/04/30 14:44:09;;;;;;;2.53;2.30;;;;;;;18.54;44.86;95622.50;4999265;28;20284;-87
2023/04/30 14:50:20;;;;;;;2.47;2.17;;;;;;;18.56;44.88;95620.47;4999661;28;20274;-87
2023/04/30 14:52:59;;;;;;;2.50;2.30;;;;;;;18.48;44.69;95618.16;4973739;28;20258;-87
2023/04/30 14:58:37;;;;;;;4.13;2.20;;;;;;;18.27;45.36;95622.91;4998778;28;20691;-87
2023/04/30 15:01:42;;;;;;;2.55;2.20;;;;;;;18.16;45.76;95628.88;4997824;28;20211;-88
2023/04/30 15:04:28;;;;;;;2.20;2.10;;;;;;;18.34;44.94;95629.81;4998103;28;20223;-87
2023/04/30 15:06:56;;;;;;;2.60;2.40;;;;;;;18.32;45.28;95626.66;4977524;28;20220;-86
2023/04/30 15:09:45;;;;;;;2.22;2.03;;;;;;;18.26;45.57;95636.97;4989583;28;20226;-86
2023/04/30 15:12:21;;;;;;;2.55;2.35;;;;;;;18.24;45.70;95631.19;4957961;28;20215;-87
2023/04/30 15:23:56;;;;;;;2.25;2.00;;;;;;;18.49;45.26;95614.53;5001008;28;20223;-86
2023/04/30 15:26:34;;;;;;;2.60;2.40;;;;;;;18.36;44.77;95614.75;5000973;28;20196;-87
2023/04/30 15:29:01;;;;;;;16.67;15.07;;;;;;;18.30;45.71;95617.25;5001983;28;20315;-86
2023/04/30 15:31:40;;;;;;;;;;;;;;;;;;;;;